sensor_id;sensor_type;location;lat;lon;timestamp;pressure;altitude;pressure_sealevel;temperature;humidity
64841;BME280;51307;52.162;7.560;2022-11-03T00:00:00;101090.88;;;10.04;86.48
64841;BME280;51307;52.162;7.560;2022-11-03T00:02:26;101093.91;;;10.00;86.59
64841;BME280;51307;52.162;7.560;2022-11-03T00:04:51;101081.97;;;9.97;86.90
64841;BME280;51307;52.162;7.560;2022-11-03T00:07:20;101082.25;;;9.94;86.87
64841;BME280;51307;52.162;7.560;2022-11-03T00:09:46;101082.66;;;9.90;87.22
64841;BME280;51307;52.162;7.560;2022-11-03T00:12:12;101078.97;;;9.92;87.42
64841;BME280;51307;52.162;7.560;2022-11-03T00:14:38;101075.38;;;9.93;87.34
64841;BME280;51307;52.162;7.560;2022-11-03T00:17:03;101066.44;;;9.96;87.30
64841;BME280;51307;52.162;7.560;2022-11-03T00:19:29;101061.38;;;9.94;87.28
64841;BME280;51307;52.162;7.560;2022-11-03T00:21:55;101065.09;;;9.92;87.39
64841;BME280;51307;52.162;7.560;2022-11-03T00:24:22;101069.63;;;9.90;87.54
64841;BME280;51307;52.162;7.560;2022-11-03T00:26:48;101067.19;;;9.88;87.88
64841;BME280;51307;52.162;7.560;2022-11-03T00:29:14;101069.91;;;9.86;88.07
64841;BME280;51307;52.162;7.560;2022-11-03T00:31:42;101068.13;;;9.87;88.09
64841;BME280;51307;52.162;7.560;2022-11-03T00:34:08;101072.22;;;9.90;88.09
64841;BME280;51307;52.162;7.560;2022-11-03T00:36:40;101061.53;;;9.93;87.90
64841;BME280;51307;52.162;7.560;2022-11-03T00:39:07;101067.56;;;9.93;87.77
64841;BME280;51307;52.162;7.560;2022-11-03T00:41:33;101056.16;;;9.94;87.70
64841;BME280;51307;52.162;7.560;2022-11-03T00:43:58;101052.88;;;9.92;87.76
64841;BME280;51307;52.162;7.560;2022-11-03T00:46:25;101057.13;;;9.93;87.92
64841;BME280;51307;52.162;7.560;2022-11-03T00:48:51;101048.06;;;9.87;88.07
64841;BME280;51307;52.162;7.560;2022-11-03T00:51:26;101055.38;;;9.84;88.16
64841;BME280;51307;52.162;7.560;2022-11-03T00:53:54;101047.00;;;9.80;88.55
64841;BME280;51307;52.162;7.560;2022-11-03T00:56:55;101052.38;;;9.79;88.29
64841;BME280;51307;52.162;7.560;2022-11-03T00:59:13;101056.19;;;9.84;88.33
64841;BME280;51307;52.162;7.560;2022-11-03T01:01:42;101052.63;;;9.85;88.58
64841;BME280;51307;52.162;7.560;2022-11-03T01:04:09;101053.16;;;9.89;88.23
64841;BME280;51307;52.162;7.560;2022-11-03T01:06:55;101047.13;;;9.88;88.01
64841;BME280;51307;52.162;7.560;2022-11-03T01:12:08;101045.31;;;9.89;88.09
64841;BME280;51307;52.162;7.560;2022-11-03T01:14:43;101048.63;;;9.91;88.00
64841;BME280;51307;52.162;7.560;2022-11-03T01:19:44;101037.06;;;9.94;87.85
64841;BME280;51307;52.162;7.560;2022-11-03T01:22:11;101035.56;;;9.91;88.05
64841;BME280;51307;52.162;7.560;2022-11-03T01:24:38;101032.16;;;9.91;87.94
64841;BME280;51307;52.162;7.560;2022-11-03T01:27:05;101031.34;;;9.90;87.85
64841;BME280;51307;52.162;7.560;2022-11-03T01:29:31;101030.66;;;9.88;87.98
64841;BME280;51307;52.162;7.560;2022-11-03T01:31:57;101021.97;;;9.87;88.34
64841;BME280;51307;52.162;7.560;2022-11-03T01:34:22;101014.47;;;9.84;88.39
64841;BME280;51307;52.162;7.560;2022-11-03T01:36:48;101009.53;;;9.81;88.53
64841;BME280;51307;52.162;7.560;2022-11-03T01:39:16;100998.13;;;9.82;88.37
64841;BME280;51307;52.162;7.560;2022-11-03T01:41:44;101003.22;;;9.84;88.59
64841;BME280;51307;52.162;7.560;2022-11-03T01:46:47;100985.50;;;9.78;88.69
64841;BME280;51307;52.162;7.560;2022-11-03T01:49:30;100986.50;;;9.77;88.90
64841;BME280;51307;52.162;7.560;2022-11-03T01:52:04;100983.03;;;9.76;89.22
64841;BME280;51307;52.162;7.560;2022-11-03T01:54:33;100981.97;;;9.79;89.16
64841;BME280;51307;52.162;7.560;2022-11-03T01:57:10;100968.91;;;9.79;89.13
64841;BME280;51307;52.162;7.560;2022-11-03T01:59:38;100970.84;;;9.77;89.13
64841;BME280;51307;52.162;7.560;2022-11-03T02:02:05;100957.94;;;9.75;89.40
64841;BME280;51307;52.162;7.560;2022-11-03T02:04:32;100956.56;;;9.71;89.65
64841;BME280;51307;52.162;7.560;2022-11-03T02:09:36;100953.16;;;9.71;89.70
64841;BME280;51307;52.162;7.560;2022-11-03T02:12:02;100939.97;;;9.72;89.68
64841;BME280;51307;52.162;7.560;2022-11-03T02:14:30;100947.81;;;9.72;89.78
64841;BME280;51307;52.162;7.560;2022-11-03T02:17:00;100946.97;;;9.72;89.73
64841;BME280;51307;52.162;7.560;2022-11-03T02:19:57;100939.31;;;9.70;89.78
64841;BME280;51307;52.162;7.560;2022-11-03T02:22:47;100934.91;;;9.71;89.79
64841;BME280;51307;52.162;7.560;2022-11-03T02:25:48;100934.91;;;9.71;90.03
64841;BME280;51307;52.162;7.560;2022-11-03T02:28:19;100939.31;;;9.70;89.90
64841;BME280;51307;52.162;7.560;2022-11-03T02:30:50;100932.28;;;9.71;89.95
64841;BME280;51307;52.162;7.560;2022-11-03T02:36:14;100926.53;;;9.67;90.11
64841;BME280;51307;52.162;7.560;2022-11-03T02:38:49;100922.97;;;9.68;90.38
64841;BME280;51307;52.162;7.560;2022-11-03T02:41:20;100914.75;;;9.63;90.61
64841;BME280;51307;52.162;7.560;2022-11-03T02:43:47;100904.47;;;9.61;90.49
64841;BME280;51307;52.162;7.560;2022-11-03T02:46:16;100900.06;;;9.62;90.61
64841;BME280;51307;52.162;7.560;2022-11-03T02:48:42;100900.88;;;9.62;90.74
64841;BME280;51307;52.162;7.560;2022-11-03T02:51:08;100896.78;;;9.60;90.57
64841;BME280;51307;52.162;7.560;2022-11-03T02:54:01;100895.13;;;9.59;90.73
64841;BME280;51307;52.162;7.560;2022-11-03T02:56:30;100894.06;;;9.52;91.28
64841;BME280;51307;52.162;7.560;2022-11-03T02:59:08;100892.97;;;9.54;91.28
64841;BME280;51307;52.162;7.560;2022-11-03T03:01:37;100890.09;;;9.48;91.52
64841;BME280;51307;52.162;7.560;2022-11-03T03:04:38;100883.25;;;9.46;91.77
64841;BME280;51307;52.162;7.560;2022-11-03T03:07:16;100886.81;;;9.45;92.07
64841;BME280;51307;52.162;7.560;2022-11-03T03:10:11;100881.09;;;9.42;92.42
64841;BME280;51307;52.162;7.560;2022-11-03T03:12:44;100880.66;;;9.37;92.65
64841;BME280;51307;52.162;7.560;2022-11-03T03:15:12;100877.25;;;9.36;93.04
64841;BME280;51307;52.162;7.560;2022-11-03T03:20:37;100873.00;;;9.35;93.29
64841;BME280;51307;52.162;7.560;2022-11-03T03:23:17;100863.69;;;9.33;93.57
64841;BME280;51307;52.162;7.560;2022-11-03T03:26:09;100866.44;;;9.31;93.67
64841;BME280;51307;52.162;7.560;2022-11-03T03:28:58;100858.34;;;9.34;93.93
64841;BME280;51307;52.162;7.560;2022-11-03T03:31:27;100859.81;;;9.37;93.76
64841;BME280;51307;52.162;7.560;2022-11-03T03:33:57;100867.38;;;9.40;93.92
64841;BME280;51307;52.162;7.560;2022-11-03T03:36:26;100869.00;;;9.41;93.85
64841;BME280;51307;52.162;7.560;2022-11-03T03:39:01;100867.38;;;9.40;93.75
64841;BME280;51307;52.162;7.560;2022-11-03T03:41:28;100865.03;;;9.37;94.05
64841;BME280;51307;52.162;7.560;2022-11-03T03:44:01;100857.91;;;9.39;94.02
64841;BME280;51307;52.162;7.560;2022-11-03T03:47:22;100857.09;;;9.38;94.04
64841;BME280;51307;52.162;7.560;2022-11-03T03:49:28;100848.75;;;9.35;94.18
64841;BME280;51307;52.162;7.560;2022-11-03T03:51:53;100845.97;;;9.36;94.24
64841;BME280;51307;52.162;7.560;2022-11-03T03:54:19;100849.25;;;9.38;94.24
64841;BME280;51307;52.162;7.560;2022-11-03T03:59:14;100838.41;;;9.43;94.20
64841;BME280;51307;52.162;7.560;2022-11-03T04:01:40;100828.78;;;9.43;93.99
64841;BME280;51307;52.162;7.560;2022-11-03T04:04:05;100829.47;;;9.45;94.05
64841;BME280;51307;52.162;7.560;2022-11-03T04:06:31;100835.38;;;9.48;93.84
64841;BME280;51307;52.162;7.560;2022-11-03T04:08:56;100833.06;;;9.44;94.22
64841;BME280;51307;52.162;7.560;2022-11-03T04:11:22;100826.19;;;9.43;94.32
64841;BME280;51307;52.162;7.560;2022-11-03T04:14:08;100827.31;;;9.41;94.35
64841;BME280;51307;52.162;7.560;2022-11-03T04:16:52;100825.53;;;9.41;94.42
64841;BME280;51307;52.162;7.560;2022-11-03T04:19:36;100827.84;;;9.44;94.46
64841;BME280;51307;52.162;7.560;2022-11-03T04:22:20;100813.84;;;9.45;94.62
64841;BME280;51307;52.162;7.560;2022-11-03T04:24:50;100813.16;;;9.43;94.56
64841;BME280;51307;52.162;7.560;2022-11-03T04:27:39;100807.94;;;9.43;94.66
64841;BME280;51307;52.162;7.560;2022-11-03T04:32:30;100804.53;;;9.43;95.04
64841;BME280;51307;52.162;7.560;2022-11-03T04:34:57;100804.53;;;9.43;95.02
64841;BME280;51307;52.162;7.560;2022-11-03T04:37:26;100800.78;;;9.45;95.17
64841;BME280;51307;52.162;7.560;2022-11-03T04:39:56;100805.19;;;9.45;95.11
64841;BME280;51307;52.162;7.560;2022-11-03T04:42:23;100798.34;;;9.44;95.53
64841;BME280;51307;52.162;7.560;2022-11-03T04:44:49;100791.50;;;9.43;95.45
64841;BME280;51307;52.162;7.560;2022-11-03T04:47:16;100792.47;;;9.42;95.84
64841;BME280;51307;52.162;7.560;2022-11-03T04:49:43;100792.31;;;9.43;95.87
64841;BME280;51307;52.162;7.560;2022-11-03T04:52:18;100780.09;;;9.44;96.15
64841;BME280;51307;52.162;7.560;2022-11-03T04:54:48;100774.91;;;9.44;96.36
64841;BME280;51307;52.162;7.560;2022-11-03T04:57:16;100773.09;;;9.44;96.59
64841;BME280;51307;52.162;7.560;2022-11-03T04:59:48;100772.44;;;9.42;96.74
64841;BME280;51307;52.162;7.560;2022-11-03T05:02:20;100771.63;;;9.42;97.07
64841;BME280;51307;52.162;7.560;2022-11-03T05:04:45;100765.59;;;9.41;97.36
64841;BME280;51307;52.162;7.560;2022-11-03T05:07:32;100760.22;;;9.43;97.67
64841;BME280;51307;52.162;7.560;2022-11-03T05:09:59;100762.81;;;9.43;97.58
64841;BME280;51307;52.162;7.560;2022-11-03T05:12:25;100756.66;;;9.44;97.70
64841;BME280;51307;52.162;7.560;2022-11-03T05:14:51;100743.31;;;9.47;98.06
64841;BME280;51307;52.162;7.560;2022-11-03T05:17:23;100738.91;;;9.48;98.01
64841;BME280;51307;52.162;7.560;2022-11-03T05:19:57;100741.69;;;9.46;98.21
64841;BME280;51307;52.162;7.560;2022-11-03T05:22:29;100739.09;;;9.46;98.37
64841;BME280;51307;52.162;7.560;2022-11-03T05:25:02;100745.09;;;9.46;98.57
64841;BME280;51307;52.162;7.560;2022-11-03T05:27:27;100742.63;;;9.45;98.84
64841;BME280;51307;52.162;7.560;2022-11-03T05:29:58;100725.38;;;9.44;98.81
64841;BME280;51307;52.162;7.560;2022-11-03T05:32:27;100727.97;;;9.44;98.91
64841;BME280;51307;52.162;7.560;2022-11-03T05:34:54;100721.13;;;9.43;99.34
64841;BME280;51307;52.162;7.560;2022-11-03T05:37:33;100721.13;;;9.43;99.64
64841;BME280;51307;52.162;7.560;2022-11-03T05:40:05;100715.63;;;9.46;99.48
64841;BME280;51307;52.162;7.560;2022-11-03T05:42:41;100719.03;;;9.46;99.73
64841;BME280;51307;52.162;7.560;2022-11-03T05:47:55;100717.94;;;9.49;99.46
64841;BME280;51307;52.162;7.560;2022-11-03T05:50:24;100706.69;;;9.49;99.65
64841;BME280;51307;52.162;7.560;2022-11-03T05:52:57;100705.69;;;9.50;99.56
64841;BME280;51307;52.162;7.560;2022-11-03T05:55:28;100713.38;;;9.51;99.87
64841;BME280;51307;52.162;7.560;2022-11-03T05:57:58;100712.25;;;9.54;99.92
64841;BME280;51307;52.162;7.560;2022-11-03T06:00:32;100711.97;;;9.57;99.78
64841;BME280;51307;52.162;7.560;2022-11-03T06:02:59;100709.38;;;9.57;99.85
64841;BME280;51307;52.162;7.560;2022-11-03T06:05:26;100708.09;;;9.61;99.66
64841;BME280;51307;52.162;7.560;2022-11-03T06:07:54;100699.19;;;9.63;99.96
64841;BME280;51307;52.162;7.560;2022-11-03T06:12:45;100700.22;;;9.71;99.35
64841;BME280;51307;52.162;7.560;2022-11-03T06:15:25;100691.25;;;9.73;99.52
64841;BME280;51307;52.162;7.560;2022-11-03T06:17:51;100691.78;;;9.77;99.52
64841;BME280;51307;52.162;7.560;2022-11-03T06:20:20;100686.94;;;9.82;99.19
64841;BME280;51307;52.162;7.560;2022-11-03T06:22:47;100680.91;;;9.81;99.13
64841;BME280;51307;52.162;7.560;2022-11-03T06:25:31;100673.91;;;9.82;99.25
64841;BME280;51307;52.162;7.560;2022-11-03T06:28:03;100667.91;;;9.90;98.94
64841;BME280;51307;52.162;7.560;2022-11-03T06:30:34;100661.59;;;9.92;98.74
64841;BME280;51307;52.162;7.560;2022-11-03T06:33:12;100675.00;;;9.97;98.63
64841;BME280;51307;52.162;7.560;2022-11-03T06:35:38;100670.13;;;10.02;98.30
64841;BME280;51307;52.162;7.560;2022-11-03T06:38:23;100675.22;;;10.04;98.28
64841;BME280;51307;52.162;7.560;2022-11-03T06:40:50;100662.50;;;10.09;98.19
64841;BME280;51307;52.162;7.560;2022-11-03T06:43:20;100656.63;;;10.07;98.01
64841;BME280;51307;52.162;7.560;2022-11-03T06:45:50;100662.50;;;10.09;98.07
64841;BME280;51307;52.162;7.560;2022-11-03T06:48:22;100649.47;;;10.09;97.91
64841;BME280;51307;52.162;7.560;2022-11-03T06:50:48;100647.69;;;10.09;98.16
64841;BME280;51307;52.162;7.560;2022-11-03T06:53:19;100650.28;;;10.09;98.28
64841;BME280;51307;52.162;7.560;2022-11-03T06:55:47;100644.78;;;10.13;98.22
64841;BME280;51307;52.162;7.560;2022-11-03T06:58:18;100649.53;;;10.17;97.96
64841;BME280;51307;52.162;7.560;2022-11-03T07:00:46;100649.53;;;10.17;98.02
64841;BME280;51307;52.162;7.560;2022-11-03T07:03:31;100649.53;;;10.17;97.83
64841;BME280;51307;52.162;7.560;2022-11-03T07:06:10;100645.78;;;10.20;98.06
64841;BME280;51307;52.162;7.560;2022-11-03T07:08:49;100637.66;;;10.23;97.94
64841;BME280;51307;52.162;7.560;2022-11-03T07:11:20;100638.16;;;10.26;97.54
64841;BME280;51307;52.162;7.560;2022-11-03T07:13:49;100626.09;;;10.25;97.74
64841;BME280;51307;52.162;7.560;2022-11-03T07:16:36;100631.66;;;10.31;97.83
64841;BME280;51307;52.162;7.560;2022-11-03T07:19:09;100639.34;;;10.32;97.72
64841;BME280;51307;52.162;7.560;2022-11-03T07:21:47;100632.84;;;10.36;97.95
64841;BME280;51307;52.162;7.560;2022-11-03T07:24:31;100644.56;;;10.32;97.90
64841;BME280;51307;52.162;7.560;2022-11-03T07:27:19;100636.75;;;10.32;97.64
64841;BME280;51307;52.162;7.560;2022-11-03T07:29:47;100626.91;;;10.26;97.86
64841;BME280;51307;52.162;7.560;2022-11-03T07:32:26;100626.72;;;10.19;98.30
64841;BME280;51307;52.162;7.560;2022-11-03T07:35:20;100626.03;;;10.17;98.50
64841;BME280;51307;52.162;7.560;2022-11-03T07:37:51;100615.09;;;10.14;98.65
64841;BME280;51307;52.162;7.560;2022-11-03T07:40:21;100617.03;;;10.12;98.91
64841;BME280;51307;52.162;7.560;2022-11-03T07:42:48;100613.13;;;10.07;98.82
64841;BME280;51307;52.162;7.560;2022-11-03T07:48:35;100616.81;;;10.05;99.57
64841;BME280;51307;52.162;7.560;2022-11-03T07:51:14;100610.00;;;10.04;99.80
64841;BME280;51307;52.162;7.560;2022-11-03T07:53:44;100611.59;;;10.05;99.85
64841;BME280;51307;52.162;7.560;2022-11-03T07:56:19;100596.78;;;10.05;100.00
64841;BME280;51307;52.162;7.560;2022-11-03T07:58:47;100598.41;;;10.06;100.00
64841;BME280;51307;52.162;7.560;2022-11-03T08:01:29;100595.81;;;10.06;100.00
64841;BME280;51307;52.162;7.560;2022-11-03T08:04:07;100591.41;;;10.07;100.00
64841;BME280;51307;52.162;7.560;2022-11-03T08:06:34;100590.13;;;10.11;100.00
64841;BME280;51307;52.162;7.560;2022-11-03T08:09:00;100592.59;;;10.13;100.00
64841;BME280;51307;52.162;7.560;2022-11-03T08:11:26;100590.78;;;10.13;100.00
64841;BME280;51307;52.162;7.560;2022-11-03T08:13:52;100590.66;;;10.15;100.00
64841;BME280;51307;52.162;7.560;2022-11-03T08:16:18;100582.81;;;10.15;100.00
64841;BME280;51307;52.162;7.560;2022-11-03T08:18:44;100579.22;;;10.16;100.00
64841;BME280;51307;52.162;7.560;2022-11-03T08:21:10;100577.44;;;10.16;100.00
64841;BME280;51307;52.162;7.560;2022-11-03T08:23:36;100574.81;;;10.16;100.00
64841;BME280;51307;52.162;7.560;2022-11-03T08:26:02;100565.72;;;10.20;100.00
64841;BME280;51307;52.162;7.560;2022-11-03T08:28:28;100566.53;;;10.21;100.00
64841;BME280;51307;52.162;7.560;2022-11-03T08:30:54;100567.03;;;10.24;100.00
64841;BME280;51307;52.162;7.560;2022-11-03T08:33:19;100561.66;;;10.26;100.00
64841;BME280;51307;52.162;7.560;2022-11-03T08:35:45;100556.97;;;10.29;100.00
64841;BME280;51307;52.162;7.560;2022-11-03T08:38:10;100552.69;;;10.28;100.00
64841;BME280;51307;52.162;7.560;2022-11-03T08:40:36;100552.56;;;10.30;100.00
64841;BME280;51307;52.162;7.560;2022-11-03T08:43:01;100548.16;;;10.31;100.00
64841;BME280;51307;52.162;7.560;2022-11-03T08:45:30;100537.38;;;10.34;100.00
64841;BME280;51307;52.162;7.560;2022-11-03T08:47:55;100538.03;;;10.36;100.00
64841;BME280;51307;52.162;7.560;2022-11-03T08:50:21;100540.50;;;10.37;100.00
64841;BME280;51307;52.162;7.560;2022-11-03T08:52:47;100534.31;;;10.38;100.00
64841;BME280;51307;52.162;7.560;2022-11-03T08:55:14;100540.06;;;10.42;100.00
64841;BME280;51307;52.162;7.560;2022-11-03T08:57:39;100543.19;;;10.45;100.00
64841;BME280;51307;52.162;7.560;2022-11-03T09:00:05;100535.84;;;10.49;100.00
64841;BME280;51307;52.162;7.560;2022-11-03T09:02:32;100528.66;;;10.51;100.00
64841;BME280;51307;52.162;7.560;2022-11-03T09:04:57;100529.50;;;10.52;100.00
64841;BME280;51307;52.162;7.560;2022-11-03T09:07:23;100524.91;;;10.54;100.00
64841;BME280;51307;52.162;7.560;2022-11-03T09:09:48;100525.56;;;10.56;100.00
64841;BME280;51307;52.162;7.560;2022-11-03T09:12:14;100522.66;;;10.59;100.00
64841;BME280;51307;52.162;7.560;2022-11-03T09:14:39;100522.34;;;10.62;99.73
64841;BME280;51307;52.162;7.560;2022-11-03T09:17:05;100515.00;;;10.65;99.73
64841;BME280;51307;52.162;7.560;2022-11-03T09:19:30;100513.19;;;10.66;99.47
64841;BME280;51307;52.162;7.560;2022-11-03T09:21:56;100510.09;;;10.70;99.22
64841;BME280;51307;52.162;7.560;2022-11-03T09:24:21;100514.84;;;10.75;98.83
64841;BME280;51307;52.162;7.560;2022-11-03T09:26:47;100512.09;;;10.77;98.84
64841;BME280;51307;52.162;7.560;2022-11-03T09:29:12;100508.00;;;10.82;98.66
64841;BME280;51307;52.162;7.560;2022-11-03T09:31:38;100501.66;;;10.85;98.71
64841;BME280;51307;52.162;7.560;2022-11-03T09:34:03;100503.13;;;10.87;98.32
64841;BME280;51307;52.162;7.560;2022-11-03T09:36:29;100493.66;;;10.95;98.29
64841;BME280;51307;52.162;7.560;2022-11-03T09:38:54;100483.84;;;10.97;98.03
64841;BME280;51307;52.162;7.560;2022-11-03T09:41:20;100481.75;;;11.00;98.01
64841;BME280;51307;52.162;7.560;2022-11-03T09:43:47;100471.94;;;11.02;97.84
64841;BME280;51307;52.162;7.560;2022-11-03T09:46:15;100464.28;;;11.09;97.75
64841;BME280;51307;52.162;7.560;2022-11-03T09:48:41;100458.22;;;11.08;97.37
64841;BME280;51307;52.162;7.560;2022-11-03T09:51:19;100449.88;;;11.13;97.43
64841;BME280;51307;52.162;7.560;2022-11-03T09:53:46;100452.03;;;11.18;97.42
64841;BME280;51307;52.162;7.560;2022-11-03T09:56:12;100441.88;;;11.23;97.23
64841;BME280;51307;52.162;7.560;2022-11-03T09:58:37;100437.13;;;11.26;96.15
64841;BME280;51307;52.162;7.560;2022-11-03T10:01:04;100430.56;;;11.30;96.24
64841;BME280;51307;52.162;7.560;2022-11-03T10:03:30;100412.63;;;11.36;95.24
64841;BME280;51307;52.162;7.560;2022-11-03T10:05:56;100412.91;;;11.41;94.93
64841;BME280;51307;52.162;7.560;2022-11-03T10:08:26;100405.72;;;11.43;95.12
64841;BME280;51307;52.162;7.560;2022-11-03T10:10:54;100401.78;;;11.47;95.17
64841;BME280;51307;52.162;7.560;2022-11-03T10:15:57;100410.88;;;11.59;95.14
64841;BME280;51307;52.162;7.560;2022-11-03T10:18:26;100403.53;;;11.63;94.85
64841;BME280;51307;52.162;7.560;2022-11-03T10:20:53;100401.06;;;11.69;93.56
64841;BME280;51307;52.162;7.560;2022-11-03T10:23:19;100399.72;;;11.73;93.50
64841;BME280;51307;52.162;7.560;2022-11-03T10:25:45;100394.03;;;11.78;93.20
64841;BME280;51307;52.162;7.560;2022-11-03T10:33:32;100380.84;;;11.94;91.57
64841;BME280;51307;52.162;7.560;2022-11-03T10:36:04;100378.88;;;11.97;91.32
64841;BME280;51307;52.162;7.560;2022-11-03T10:38:40;100382.63;;;12.02;91.07
64841;BME280;51307;52.162;7.560;2022-11-03T10:41:14;100374.25;;;12.07;90.23
64841;BME280;51307;52.162;7.560;2022-11-03T10:43:43;100362.28;;;12.12;89.71
64841;BME280;51307;52.162;7.560;2022-11-03T10:46:17;100362.09;;;12.14;89.61
64841;BME280;51307;52.162;7.560;2022-11-03T10:48:43;100350.78;;;12.22;89.42
64841;BME280;51307;52.162;7.560;2022-11-03T10:51:17;100341.75;;;12.24;89.19
64841;BME280;51307;52.162;7.560;2022-11-03T10:53:43;100332.38;;;12.30;88.92
64841;BME280;51307;52.162;7.560;2022-11-03T10:56:09;100326.16;;;12.31;88.40
64841;BME280;51307;52.162;7.560;2022-11-03T10:58:34;100320.56;;;12.34;87.70
64841;BME280;51307;52.162;7.560;2022-11-03T11:01:02;100317.59;;;12.37;88.02
64841;BME280;51307;52.162;7.560;2022-11-03T11:03:27;100313.66;;;12.41;87.28
64841;BME280;51307;52.162;7.560;2022-11-03T11:05:53;100309.22;;;12.42;86.42
64841;BME280;51307;52.162;7.560;2022-11-03T11:08:22;100301.38;;;12.42;87.29
64841;BME280;51307;52.162;7.560;2022-11-03T11:10:47;100283.84;;;12.42;87.85
64841;BME280;51307;52.162;7.560;2022-11-03T11:15:48;100274.63;;;12.46;87.32
64841;BME280;51307;52.162;7.560;2022-11-03T11:20:56;100276.88;;;12.49;86.44
64841;BME280;51307;52.162;7.560;2022-11-03T11:28:30;100254.31;;;12.48;86.22
64841;BME280;51307;52.162;7.560;2022-11-03T11:30:57;100255.94;;;12.49;87.42
64841;BME280;51307;52.162;7.560;2022-11-03T11:33:26;100244.81;;;12.47;88.26
64841;BME280;51307;52.162;7.560;2022-11-03T11:39:10;100247.00;;;12.44;89.44
64841;BME280;51307;52.162;7.560;2022-11-03T11:42:04;100242.94;;;12.41;89.24
64841;BME280;51307;52.162;7.560;2022-11-03T11:55:01;100205.91;;;12.44;88.96
64841;BME280;51307;52.162;7.560;2022-11-03T11:57:29;100203.94;;;12.46;88.73
64841;BME280;51307;52.162;7.560;2022-11-03T11:59:58;100202.50;;;12.44;89.13
64841;BME280;51307;52.162;7.560;2022-11-03T12:02:28;100197.06;;;12.45;89.59
64841;BME280;51307;52.162;7.560;2022-11-03T12:04:57;100187.59;;;12.44;89.27
64841;BME280;51307;52.162;7.560;2022-11-03T12:07:35;100180.72;;;12.43;89.21
64841;BME280;51307;52.162;7.560;2022-11-03T12:10:22;100165.00;;;12.43;88.98
64841;BME280;51307;52.162;7.560;2022-11-03T12:12:51;100176.09;;;12.45;89.23
64841;BME280;51307;52.162;7.560;2022-11-03T12:15:54;100173.84;;;12.42;88.69
64841;BME280;51307;52.162;7.560;2022-11-03T12:18:35;100166.81;;;12.43;89.45
64841;BME280;51307;52.162;7.560;2022-11-03T12:21:43;100163.56;;;12.41;89.05
64841;BME280;51307;52.162;7.560;2022-11-03T12:23:58;100160.94;;;12.41;89.26
64841;BME280;51307;52.162;7.560;2022-11-03T12:28:49;100146.06;;;12.41;89.63
64841;BME280;51307;52.162;7.560;2022-11-03T12:31:15;100149.28;;;12.43;90.01
64841;BME280;51307;52.162;7.560;2022-11-03T12:33:40;100147.50;;;12.44;89.36
64841;BME280;51307;52.162;7.560;2022-11-03T12:36:06;100144.88;;;12.44;89.63
64841;BME280;51307;52.162;7.560;2022-11-03T12:38:32;100143.31;;;12.49;89.70
64841;BME280;51307;52.162;7.560;2022-11-03T12:40:57;100136.09;;;12.51;89.99
64841;BME280;51307;52.162;7.560;2022-11-03T12:43:43;100124.91;;;12.58;89.95
64841;BME280;51307;52.162;7.560;2022-11-03T12:46:08;100119.50;;;12.59;89.35
64841;BME280;51307;52.162;7.560;2022-11-03T12:48:34;100117.94;;;12.65;90.33
64841;BME280;51307;52.162;7.560;2022-11-03T12:50:59;100108.56;;;12.70;88.96
64841;BME280;51307;52.162;7.560;2022-11-03T12:53:24;100098.31;;;12.75;89.26
64841;BME280;51307;52.162;7.560;2022-11-03T12:55:50;100086.88;;;12.76;89.00
64841;BME280;51307;52.162;7.560;2022-11-03T12:58:15;100076.19;;;12.78;88.84
64841;BME280;51307;52.162;7.560;2022-11-03T13:00:41;100071.75;;;12.79;88.27
64841;BME280;51307;52.162;7.560;2022-11-03T13:03:06;100067.50;;;12.77;87.71
64841;BME280;51307;52.162;7.560;2022-11-03T13:05:32;100068.69;;;12.75;88.05
64841;BME280;51307;52.162;7.560;2022-11-03T13:07:57;100062.84;;;12.73;88.20
64841;BME280;51307;52.162;7.560;2022-11-03T13:10:23;100061.66;;;12.75;88.55
64841;BME280;51307;52.162;7.560;2022-11-03T13:12:48;100051.00;;;12.77;88.84
64841;BME280;51307;52.162;7.560;2022-11-03T13:15:14;100034.25;;;12.78;87.71
64841;BME280;51307;52.162;7.560;2022-11-03T13:17:40;100033.63;;;12.76;87.78
64841;BME280;51307;52.162;7.560;2022-11-03T13:20:06;100019.34;;;12.79;87.97
64841;BME280;51307;52.162;7.560;2022-11-03T13:22:32;100015.91;;;12.78;88.08
64841;BME280;51307;52.162;7.560;2022-11-03T13:24:58;100019.56;;;12.77;88.08
64841;BME280;51307;52.162;7.560;2022-11-03T13:27:23;99999.56;;;12.76;88.14
64841;BME280;51307;52.162;7.560;2022-11-03T13:29:49;99997.78;;;12.76;88.09
64841;BME280;51307;52.162;7.560;2022-11-03T13:32:14;100001.38;;;12.75;87.97
64841;BME280;51307;52.162;7.560;2022-11-03T13:34:40;99992.34;;;12.78;87.65
64841;BME280;51307;52.162;7.560;2022-11-03T13:37:05;99986.69;;;12.74;88.15
64841;BME280;51307;52.162;7.560;2022-11-03T13:39:31;99969.94;;;12.75;88.02
64841;BME280;51307;52.162;7.560;2022-11-03T13:41:57;99977.63;;;12.77;88.17
64841;BME280;51307;52.162;7.560;2022-11-03T13:44:22;99961.91;;;12.77;88.67
64841;BME280;51307;52.162;7.560;2022-11-03T13:46:48;99954.69;;;12.79;88.74
64841;BME280;51307;52.162;7.560;2022-11-03T13:49:13;99954.75;;;12.86;88.94
64841;BME280;51307;52.162;7.560;2022-11-03T13:51:40;99944.31;;;12.92;88.34
64841;BME280;51307;52.162;7.560;2022-11-03T13:54:05;99941.94;;;12.97;87.79
64841;BME280;51307;52.162;7.560;2022-11-03T13:56:31;99942.16;;;13.03;88.01
64841;BME280;51307;52.162;7.560;2022-11-03T13:58:56;99935.94;;;13.04;87.50
64841;BME280;51307;52.162;7.560;2022-11-03T14:01:22;99929.72;;;13.05;87.58
64841;BME280;51307;52.162;7.560;2022-11-03T14:03:47;99923.31;;;13.07;87.44
64841;BME280;51307;52.162;7.560;2022-11-03T14:06:13;99922.91;;;13.10;87.75
64841;BME280;51307;52.162;7.560;2022-11-03T14:08:38;99911.22;;;13.13;88.14
64841;BME280;51307;52.162;7.560;2022-11-03T14:11:04;99910.44;;;13.12;87.33
64841;BME280;51307;52.162;7.560;2022-11-03T14:13:49;99897.91;;;13.08;87.59